sensor_id;sensor_type;location;lat;lon;timestamp;P1;durP1;ratioP1;P2;durP2;ratioP2
16407;SDS011;8313;49.894;8.084;2022-09-20T00:00:03;3.60;;;1.80;;
16407;SDS011;8313;49.894;8.084;2022-09-20T00:02:30;1.90;;;1.60;;
16407;SDS011;8313;49.894;8.084;2022-09-20T00:04:55;2.03;;;1.40;;
16407;SDS011;8313;49.894;8.084;2022-09-20T00:07:21;2.23;;;1.80;;
16407;SDS011;8313;49.894;8.084;2022-09-20T00:09:47;1.53;;;1.20;;
16407;SDS011;8313;49.894;8.084;2022-09-20T00:12:12;3.37;;;1.80;;
16407;SDS011;8313;49.894;8.084;2022-09-20T00:14:38;2.37;;;1.60;;
16407;SDS011;8313;49.894;8.084;2022-09-20T00:17:04;3.60;;;1.87;;
16407;SDS011;8313;49.894;8.084;2022-09-20T00:19:29;4.90;;;2.00;;
16407;SDS011;8313;49.894;8.084;2022-09-20T00:21:55;5.13;;;3.30;;
16407;SDS011;8313;49.894;8.084;2022-09-20T00:24:21;4.30;;;2.40;;
16407;SDS011;8313;49.894;8.084;2022-09-20T00:26:46;4.73;;;3.07;;
16407;SDS011;8313;49.894;8.084;2022-09-20T00:29:12;3.80;;;2.30;;
16407;SDS011;8313;49.894;8.084;2022-09-20T00:31:38;5.53;;;2.53;;
16407;SDS011;8313;49.894;8.084;2022-09-20T00:34:07;4.90;;;2.90;;
16407;SDS011;8313;49.894;8.084;2022-09-20T00:36:52;2.77;;;2.53;;
16407;SDS011;8313;49.894;8.084;2022-09-20T00:39:18;5.83;;;2.63;;
16407;SDS011;8313;49.894;8.084;2022-09-20T00:41:44;3.47;;;2.07;;
16407;SDS011;8313;49.894;8.084;2022-09-20T00:47:35;2.37;;;2.17;;
16407;SDS011;8313;49.894;8.084;2022-09-20T00:50:06;5.90;;;2.10;;
16407;SDS011;8313;49.894;8.084;2022-09-20T00:52:35;1.70;;;1.60;;
16407;SDS011;8313;49.894;8.084;2022-09-20T00:55:02;2.83;;;1.93;;
16407;SDS011;8313;49.894;8.084;2022-09-20T00:57:31;2.10;;;1.63;;
16407;SDS011;8313;49.894;8.084;2022-09-20T00:59:59;2.03;;;1.80;;
16407;SDS011;8313;49.894;8.084;2022-09-20T01:02:30;4.07;;;1.70;;
16407;SDS011;8313;49.894;8.084;2022-09-20T01:04:58;1.93;;;1.63;;
16407;SDS011;8313;49.894;8.084;2022-09-20T01:07:24;3.97;;;2.10;;
16407;SDS011;8313;49.894;8.084;2022-09-20T01:09:50;1.87;;;1.60;;
16407;SDS011;8313;49.894;8.084;2022-09-20T01:12:17;4.63;;;1.70;;
16407;SDS011;8313;49.894;8.084;2022-09-20T01:14:46;2.50;;;1.97;;
16407;SDS011;8313;49.894;8.084;2022-09-20T01:17:14;2.17;;;1.60;;
16407;SDS011;8313;49.894;8.084;2022-09-20T01:28:09;1.73;;;1.03;;
16407;SDS011;8313;49.894;8.084;2022-09-20T01:30:40;6.40;;;1.73;;
16407;SDS011;8313;49.894;8.084;2022-09-20T01:35:48;3.33;;;1.30;;
16407;SDS011;8313;49.894;8.084;2022-09-20T01:38:24;2.50;;;1.23;;
16407;SDS011;8313;49.894;8.084;2022-09-20T01:48:52;4.20;;;1.80;;
16407;SDS011;8313;49.894;8.084;2022-09-20T01:54:09;3.47;;;1.03;;
16407;SDS011;8313;49.894;8.084;2022-09-20T01:56:46;3.90;;;1.40;;
16407;SDS011;8313;49.894;8.084;2022-09-20T02:08:23;3.10;;;1.27;;
16407;SDS011;8313;49.894;8.084;2022-09-20T02:24:50;1.90;;;1.33;;
16407;SDS011;8313;49.894;8.084;2022-09-20T02:27:26;3.07;;;1.57;;
16407;SDS011;8313;49.894;8.084;2022-09-20T02:38:08;1.30;;;1.20;;
16407;SDS011;8313;49.894;8.084;2022-09-20T02:43:28;3.60;;;1.67;;
16407;SDS011;8313;49.894;8.084;2022-09-20T02:49:03;1.97;;;1.23;;
16407;SDS011;8313;49.894;8.084;2022-09-20T02:51:42;2.67;;;1.20;;
16407;SDS011;8313;49.894;8.084;2022-09-20T02:54:44;1.73;;;1.33;;
16407;SDS011;8313;49.894;8.084;2022-09-20T03:00:53;3.13;;;1.17;;
16407;SDS011;8313;49.894;8.084;2022-09-20T03:03:43;2.30;;;1.10;;
16407;SDS011;8313;49.894;8.084;2022-09-20T03:09:41;4.10;;;1.70;;
16407;SDS011;8313;49.894;8.084;2022-09-20T03:20:34;2.70;;;1.20;;
16407;SDS011;8313;49.894;8.084;2022-09-20T03:39:57;4.17;;;1.70;;
16407;SDS011;8313;49.894;8.084;2022-09-20T03:42:28;3.60;;;1.73;;
16407;SDS011;8313;49.894;8.084;2022-09-20T03:56:47;1.80;;;1.40;;
16407;SDS011;8313;49.894;8.084;2022-09-20T04:05:14;1.73;;;1.60;;
16407;SDS011;8313;49.894;8.084;2022-09-20T04:07:52;1.97;;;1.63;;
16407;SDS011;8313;49.894;8.084;2022-09-20T04:11:02;1.53;;;1.40;;
16407;SDS011;8313;49.894;8.084;2022-09-20T04:14:32;2.87;;;2.00;;
16407;SDS011;8313;49.894;8.084;2022-09-20T04:16:33;3.77;;;1.60;;
16407;SDS011;8313;49.894;8.084;2022-09-20T04:19:28;6.20;;;2.03;;
16407;SDS011;8313;49.894;8.084;2022-09-20T04:22:02;1.73;;;1.33;;
16407;SDS011;8313;49.894;8.084;2022-09-20T04:35:26;3.10;;;2.17;;
16407;SDS011;8313;49.894;8.084;2022-09-20T04:38:27;2.83;;;1.73;;
16407;SDS011;8313;49.894;8.084;2022-09-20T04:51:51;1.47;;;1.37;;
16407;SDS011;8313;49.894;8.084;2022-09-20T04:57:47;4.60;;;1.70;;
16407;SDS011;8313;49.894;8.084;2022-09-20T05:00:22;2.50;;;1.83;;
16407;SDS011;8313;49.894;8.084;2022-09-20T05:06:02;2.63;;;2.23;;
16407;SDS011;8313;49.894;8.084;2022-09-20T05:11:09;2.30;;;1.90;;
16407;SDS011;8313;49.894;8.084;2022-09-20T05:19:24;4.50;;;2.03;;
16407;SDS011;8313;49.894;8.084;2022-09-20T05:30:45;5.17;;;2.70;;
16407;SDS011;8313;49.894;8.084;2022-09-20T05:33:33;3.30;;;2.47;;
16407;SDS011;8313;49.894;8.084;2022-09-20T05:39:06;4.20;;;2.80;;
16407;SDS011;8313;49.894;8.084;2022-09-20T05:47:51;9.00;;;3.23;;
16407;SDS011;8313;49.894;8.084;2022-09-20T06:01:30;4.67;;;3.03;;
16407;SDS011;8313;49.894;8.084;2022-09-20T06:04:06;4.23;;;2.13;;
16407;SDS011;8313;49.894;8.084;2022-09-20T06:12:03;4.57;;;2.17;;
16407;SDS011;8313;49.894;8.084;2022-09-20T06:17:35;2.70;;;2.23;;
16407;SDS011;8313;49.894;8.084;2022-09-20T06:20:24;8.10;;;2.77;;
16407;SDS011;8313;49.894;8.084;2022-09-20T06:23:02;2.43;;;2.20;;
16407;SDS011;8313;49.894;8.084;2022-09-20T06:30:48;6.93;;;2.33;;
16407;SDS011;8313;49.894;8.084;2022-09-20T06:33:19;3.43;;;2.20;;
16407;SDS011;8313;49.894;8.084;2022-09-20T06:42:12;3.47;;;1.90;;
16407;SDS011;8313;49.894;8.084;2022-09-20T06:44:39;7.10;;;2.43;;
16407;SDS011;8313;49.894;8.084;2022-09-20T06:47:10;4.30;;;2.13;;
16407;SDS011;8313;49.894;8.084;2022-09-20T06:49:37;3.17;;;2.47;;
16407;SDS011;8313;49.894;8.084;2022-09-20T06:52:15;5.20;;;2.57;;
16407;SDS011;8313;49.894;8.084;2022-09-20T06:54:43;6.10;;;2.63;;
16407;SDS011;8313;49.894;8.084;2022-09-20T06:57:10;4.23;;;1.97;;
16407;SDS011;8313;49.894;8.084;2022-09-20T06:59:42;6.30;;;2.73;;
16407;SDS011;8313;49.894;8.084;2022-09-20T07:02:08;4.17;;;2.57;;
16407;SDS011;8313;49.894;8.084;2022-09-20T07:04:34;7.27;;;3.80;;
16407;SDS011;8313;49.894;8.084;2022-09-20T07:07:01;4.23;;;2.20;;
16407;SDS011;8313;49.894;8.084;2022-09-20T07:09:28;3.43;;;2.27;;
16407;SDS011;8313;49.894;8.084;2022-09-20T07:11:54;4.93;;;2.03;;
16407;SDS011;8313;49.894;8.084;2022-09-20T07:14:23;2.80;;;2.20;;
16407;SDS011;8313;49.894;8.084;2022-09-20T07:16:50;3.60;;;2.20;;
16407;SDS011;8313;49.894;8.084;2022-09-20T07:19:16;3.17;;;2.20;;
16407;SDS011;8313;49.894;8.084;2022-09-20T07:21:42;3.20;;;2.13;;
16407;SDS011;8313;49.894;8.084;2022-09-20T07:24:08;3.87;;;2.20;;
16407;SDS011;8313;49.894;8.084;2022-09-20T07:26:34;3.07;;;2.80;;
16407;SDS011;8313;49.894;8.084;2022-09-20T07:29:00;3.47;;;2.17;;
16407;SDS011;8313;49.894;8.084;2022-09-20T07:31:27;8.20;;;2.60;;
16407;SDS011;8313;49.894;8.084;2022-09-20T07:33:53;7.20;;;2.73;;
16407;SDS011;8313;49.894;8.084;2022-09-20T07:36:19;6.83;;;2.50;;
16407;SDS011;8313;49.894;8.084;2022-09-20T07:38:46;4.10;;;3.20;;
16407;SDS011;8313;49.894;8.084;2022-09-20T07:41:13;3.83;;;2.60;;
16407;SDS011;8313;49.894;8.084;2022-09-20T07:43:38;5.53;;;3.20;;
16407;SDS011;8313;49.894;8.084;2022-09-20T07:46:04;4.20;;;3.17;;
16407;SDS011;8313;49.894;8.084;2022-09-20T07:48:31;16.27;;;3.23;;
16407;SDS011;8313;49.894;8.084;2022-09-20T07:51:04;4.20;;;3.80;;
16407;SDS011;8313;49.894;8.084;2022-09-20T07:53:32;3.43;;;2.83;;
16407;SDS011;8313;49.894;8.084;2022-09-20T07:55:59;7.13;;;3.00;;
16407;SDS011;8313;49.894;8.084;2022-09-20T07:58:30;2.67;;;2.40;;
16407;SDS011;8313;49.894;8.084;2022-09-20T08:00:58;3.50;;;2.57;;
16407;SDS011;8313;49.894;8.084;2022-09-20T08:03:30;3.00;;;2.10;;
16407;SDS011;8313;49.894;8.084;2022-09-20T08:05:58;3.83;;;2.13;;
16407;SDS011;8313;49.894;8.084;2022-09-20T08:08:30;2.57;;;2.37;;
16407;SDS011;8313;49.894;8.084;2022-09-20T08:11:30;4.30;;;2.20;;
16407;SDS011;8313;49.894;8.084;2022-09-20T08:13:50;3.50;;;2.57;;
16407;SDS011;8313;49.894;8.084;2022-09-20T08:16:17;3.83;;;2.33;;
16407;SDS011;8313;49.894;8.084;2022-09-20T08:18:51;5.03;;;2.10;;
16407;SDS011;8313;49.894;8.084;2022-09-20T08:21:19;2.90;;;2.50;;
16407;SDS011;8313;49.894;8.084;2022-09-20T08:23:45;4.80;;;2.97;;
16407;SDS011;8313;49.894;8.084;2022-09-20T08:26:18;3.67;;;2.83;;
16407;SDS011;8313;49.894;8.084;2022-09-20T08:28:46;3.30;;;2.07;;
16407;SDS011;8313;49.894;8.084;2022-09-20T08:31:16;4.23;;;2.60;;
16407;SDS011;8313;49.894;8.084;2022-09-20T08:33:44;4.07;;;2.47;;
16407;SDS011;8313;49.894;8.084;2022-09-20T08:36:13;6.27;;;2.00;;
16407;SDS011;8313;49.894;8.084;2022-09-20T08:38:40;4.60;;;3.23;;
16407;SDS011;8313;49.894;8.084;2022-09-20T08:41:09;3.40;;;2.37;;
16407;SDS011;8313;49.894;8.084;2022-09-20T08:46:21;6.33;;;2.83;;
16407;SDS011;8313;49.894;8.084;2022-09-20T08:48:51;6.13;;;2.77;;
16407;SDS011;8313;49.894;8.084;2022-09-20T08:51:17;8.60;;;2.70;;
16407;SDS011;8313;49.894;8.084;2022-09-20T08:53:48;3.37;;;2.87;;
16407;SDS011;8313;49.894;8.084;2022-09-20T08:56:15;7.30;;;4.90;;
16407;SDS011;8313;49.894;8.084;2022-09-20T08:58:42;8.63;;;5.37;;
16407;SDS011;8313;49.894;8.084;2022-09-20T09:01:22;4.70;;;4.30;;
16407;SDS011;8313;49.894;8.084;2022-09-20T09:03:52;5.63;;;3.93;;
16407;SDS011;8313;49.894;8.084;2022-09-20T09:06:36;4.50;;;3.43;;
16407;SDS011;8313;49.894;8.084;2022-09-20T09:09:03;12.90;;;4.00;;
16407;SDS011;8313;49.894;8.084;2022-09-20T09:11:29;3.13;;;2.67;;
16407;SDS011;8313;49.894;8.084;2022-09-20T09:14:10;3.90;;;3.37;;
16407;SDS011;8313;49.894;8.084;2022-09-20T09:17:35;2.20;;;1.97;;
16407;SDS011;8313;49.894;8.084;2022-09-20T09:23:02;5.50;;;3.20;;
16407;SDS011;8313;49.894;8.084;2022-09-20T09:25:36;2.93;;;2.23;;
16407;SDS011;8313;49.894;8.084;2022-09-20T09:30:36;3.80;;;2.13;;
16407;SDS011;8313;49.894;8.084;2022-09-20T09:33:17;7.50;;;4.87;;
16407;SDS011;8313;49.894;8.084;2022-09-20T09:38:24;6.10;;;4.67;;
16407;SDS011;8313;49.894;8.084;2022-09-20T09:40:53;6.83;;;4.87;;
16407;SDS011;8313;49.894;8.084;2022-09-20T09:43:21;7.60;;;5.60;;
16407;SDS011;8313;49.894;8.084;2022-09-20T09:45:52;45.83;;;26.03;;
16407;SDS011;8313;49.894;8.084;2022-09-20T09:50:48;101.50;;;50.80;;
16407;SDS011;8313;49.894;8.084;2022-09-20T10:02:15;10.53;;;7.60;;
16407;SDS011;8313;49.894;8.084;2022-09-20T10:06:53;9.23;;;4.70;;
16407;SDS011;8313;49.894;8.084;2022-09-20T10:36:08;4.50;;;2.47;;
16407;SDS011;8313;49.894;8.084;2022-09-20T10:39:31;4.07;;;2.60;;
16407;SDS011;8313;49.894;8.084;2022-09-20T10:44:56;4.03;;;2.87;;
16407;SDS011;8313;49.894;8.084;2022-09-20T10:47:53;3.27;;;2.73;;
16407;SDS011;8313;49.894;8.084;2022-09-20T10:50:54;2.87;;;2.03;;
16407;SDS011;8313;49.894;8.084;2022-09-20T10:53:59;5.20;;;4.20;;
16407;SDS011;8313;49.894;8.084;2022-09-20T10:56:44;4.90;;;3.93;;
16407;SDS011;8313;49.894;8.084;2022-09-20T11:04:59;18.80;;;10.90;;
16407;SDS011;8313;49.894;8.084;2022-09-20T11:07:57;7.90;;;5.50;;
16407;SDS011;8313;49.894;8.084;2022-09-20T11:10:51;8.77;;;4.60;;
16407;SDS011;8313;49.894;8.084;2022-09-20T11:18:51;7.80;;;4.10;;
16407;SDS011;8313;49.894;8.084;2022-09-20T11:21:23;4.00;;;2.47;;
16407;SDS011;8313;49.894;8.084;2022-09-20T11:24:04;3.07;;;2.17;;
16407;SDS011;8313;49.894;8.084;2022-09-20T11:26:47;2.30;;;2.10;;
16407;SDS011;8313;49.894;8.084;2022-09-20T11:29:25;1.83;;;1.73;;
16407;SDS011;8313;49.894;8.084;2022-09-20T11:32:11;2.17;;;1.97;;
16407;SDS011;8313;49.894;8.084;2022-09-20T11:34:42;5.23;;;4.00;;
16407;SDS011;8313;49.894;8.084;2022-09-20T11:37:37;5.90;;;3.40;;
16407;SDS011;8313;49.894;8.084;2022-09-20T11:40:13;4.70;;;2.87;;
16407;SDS011;8313;49.894;8.084;2022-09-20T11:42:47;2.23;;;1.90;;
16407;SDS011;8313;49.894;8.084;2022-09-20T11:45:13;2.63;;;2.10;;
16407;SDS011;8313;49.894;8.084;2022-09-20T11:47:43;3.00;;;2.20;;
16407;SDS011;8313;49.894;8.084;2022-09-20T11:56:24;4.30;;;1.90;;
16407;SDS011;8313;49.894;8.084;2022-09-20T11:58:52;2.93;;;2.47;;
16407;SDS011;8313;49.894;8.084;2022-09-20T12:01:30;2.47;;;2.27;;
16407;SDS011;8313;49.894;8.084;2022-09-20T12:03:59;3.40;;;2.60;;
16407;SDS011;8313;49.894;8.084;2022-09-20T12:06:32;2.37;;;2.17;;
16407;SDS011;8313;49.894;8.084;2022-09-20T12:09:01;3.37;;;2.20;;
16407;SDS011;8313;49.894;8.084;2022-09-20T12:11:45;2.40;;;2.20;;
16407;SDS011;8313;49.894;8.084;2022-09-20T12:14:27;256.97;;;108.70;;
16407;SDS011;8313;49.894;8.084;2022-09-20T12:16:54;178.67;;;83.70;;
16407;SDS011;8313;49.894;8.084;2022-09-20T12:24:34;92.73;;;41.97;;
16407;SDS011;8313;49.894;8.084;2022-09-20T12:30:14;129.47;;;50.43;;
16407;SDS011;8313;49.894;8.084;2022-09-20T12:32:46;84.20;;;36.43;;
16407;SDS011;8313;49.894;8.084;2022-09-20T12:40:59;15.17;;;8.23;;
16407;SDS011;8313;49.894;8.084;2022-09-20T12:43:32;11.73;;;5.80;;
16407;SDS011;8313;49.894;8.084;2022-09-20T12:45:59;6.90;;;3.70;;
16407;SDS011;8313;49.894;8.084;2022-09-20T12:48:26;5.20;;;2.37;;
16407;SDS011;8313;49.894;8.084;2022-09-20T12:51:05;4.67;;;2.10;;
16407;SDS011;8313;49.894;8.084;2022-09-20T12:54:03;4.60;;;2.33;;
16407;SDS011;8313;49.894;8.084;2022-09-20T12:56:35;2.67;;;1.90;;
16407;SDS011;8313;49.894;8.084;2022-09-20T12:59:04;2.20;;;1.87;;
16407;SDS011;8313;49.894;8.084;2022-09-20T13:01:45;3.77;;;2.00;;
16407;SDS011;8313;49.894;8.084;2022-09-20T13:07:35;2.50;;;1.63;;
16407;SDS011;8313;49.894;8.084;2022-09-20T13:10:21;3.03;;;2.27;;
16407;SDS011;8313;49.894;8.084;2022-09-20T13:12:51;8.00;;;2.23;;
16407;SDS011;8313;49.894;8.084;2022-09-20T13:15:21;8.50;;;2.80;;
16407;SDS011;8313;49.894;8.084;2022-09-20T13:17:47;2.60;;;2.17;;
16407;SDS011;8313;49.894;8.084;2022-09-20T13:20:18;4.37;;;2.40;;
16407;SDS011;8313;49.894;8.084;2022-09-20T13:22:47;2.17;;;1.80;;
16407;SDS011;8313;49.894;8.084;2022-09-20T13:25:14;7.90;;;2.43;;
16407;SDS011;8313;49.894;8.084;2022-09-20T13:27:46;3.37;;;2.30;;
16407;SDS011;8313;49.894;8.084;2022-09-20T13:30:25;3.00;;;2.00;;
16407;SDS011;8313;49.894;8.084;2022-09-20T13:32:56;2.70;;;1.80;;
16407;SDS011;8313;49.894;8.084;2022-09-20T13:35:39;3.53;;;2.20;;
16407;SDS011;8313;49.894;8.084;2022-09-20T13:38:06;2.50;;;2.23;;
16407;SDS011;8313;49.894;8.084;2022-09-20T13:40:38;1.87;;;1.67;;
16407;SDS011;8313;49.894;8.084;2022-09-20T13:43:13;1.53;;;1.43;;
16407;SDS011;8313;49.894;8.084;2022-09-20T13:46:05;2.63;;;2.03;;
16407;SDS011;8313;49.894;8.084;2022-09-20T13:48:30;2.30;;;2.10;;
16407;SDS011;8313;49.894;8.084;2022-09-20T13:50:56;2.43;;;2.23;;
16407;SDS011;8313;49.894;8.084;2022-09-20T13:53:23;2.50;;;2.27;;
16407;SDS011;8313;49.894;8.084;2022-09-20T13:55:50;7.50;;;5.10;;
16407;SDS011;8313;49.894;8.084;2022-09-20T13:58:16;11.67;;;6.53;;
16407;SDS011;8313;49.894;8.084;2022-09-20T14:00:51;5.40;;;3.80;;
16407;SDS011;8313;49.894;8.084;2022-09-20T14:03:19;4.50;;;3.50;;
16407;SDS011;8313;49.894;8.084;2022-09-20T14:05:48;2.60;;;1.87;;
16407;SDS011;8313;49.894;8.084;2022-09-20T14:08:23;2.00;;;1.80;;
16407;SDS011;8313;49.894;8.084;2022-09-20T14:13:41;2.77;;;2.17;;
16407;SDS011;8313;49.894;8.084;2022-09-20T14:16:10;1.93;;;1.83;;
16407;SDS011;8313;49.894;8.084;2022-09-20T14:18:37;2.10;;;1.90;;
16407;SDS011;8313;49.894;8.084;2022-09-20T14:21:08;2.33;;;2.10;;
16407;SDS011;8313;49.894;8.084;2022-09-20T14:26:31;1.97;;;1.70;;
16407;SDS011;8313;49.894;8.084;2022-09-20T14:31:53;2.07;;;1.43;;
16407;SDS011;8313;49.894;8.084;2022-09-20T14:34:21;2.13;;;1.90;;
16407;SDS011;8313;49.894;8.084;2022-09-20T14:36:47;2.17;;;1.70;;
16407;SDS011;8313;49.894;8.084;2022-09-20T14:39:14;1.50;;;1.40;;
16407;SDS011;8313;49.894;8.084;2022-09-20T14:41:45;2.10;;;1.90;;
16407;SDS011;8313;49.894;8.084;2022-09-20T14:44:25;2.00;;;1.60;;
16407;SDS011;8313;49.894;8.084;2022-09-20T14:46:55;2.40;;;1.63;;
16407;SDS011;8313;49.894;8.084;2022-09-20T14:51:56;1.57;;;1.47;;
16407;SDS011;8313;49.894;8.084;2022-09-20T14:54:59;1.90;;;1.27;;
16407;SDS011;8313;49.894;8.084;2022-09-20T14:57:26;1.60;;;1.40;;
16407;SDS011;8313;49.894;8.084;2022-09-20T14:59:54;5.00;;;1.57;;
16407;SDS011;8313;49.894;8.084;2022-09-20T15:02:23;1.90;;;1.67;;
16407;SDS011;8313;49.894;8.084;2022-09-20T15:04:56;3.97;;;1.37;;
16407;SDS011;8313;49.894;8.084;2022-09-20T15:07:24;2.10;;;1.80;;
16407;SDS011;8313;49.894;8.084;2022-09-20T15:09:50;3.87;;;1.73;;
16407;SDS011;8313;49.894;8.084;2022-09-20T15:12:17;1.27;;;1.17;;
16407;SDS011;8313;49.894;8.084;2022-09-20T15:14:44;1.83;;;1.40;;
16407;SDS011;8313;49.894;8.084;2022-09-20T15:17:14;1.47;;;1.37;;
16407;SDS011;8313;49.894;8.084;2022-09-20T15:19:42;7.47;;;2.50;;
16407;SDS011;8313;49.894;8.084;2022-09-20T15:22:08;3.10;;;1.80;;
16407;SDS011;8313;49.894;8.084;2022-09-20T15:24:34;3.17;;;1.70;;
16407;SDS011;8313;49.894;8.084;2022-09-20T15:27:00;2.53;;;2.33;;
16407;SDS011;8313;49.894;8.084;2022-09-20T15:29:26;5.10;;;3.40;;
16407;SDS011;8313;49.894;8.084;2022-09-20T15:31:52;6.77;;;3.23;;
16407;SDS011;8313;49.894;8.084;2022-09-20T15:34:17;2.70;;;2.50;;
16407;SDS011;8313;49.894;8.084;2022-09-20T15:36:43;12.20;;;7.30;;
16407;SDS011;8313;49.894;8.084;2022-09-20T15:39:09;18.53;;;10.63;;
16407;SDS011;8313;49.894;8.084;2022-09-20T15:41:35;23.73;;;10.43;;
16407;SDS011;8313;49.894;8.084;2022-09-20T15:44:02;8.90;;;5.20;;
16407;SDS011;8313;49.894;8.084;2022-09-20T15:46:29;5.37;;;3.03;;
16407;SDS011;8313;49.894;8.084;2022-09-20T15:48:56;3.10;;;2.77;;
16407;SDS011;8313;49.894;8.084;2022-09-20T15:51:24;2.80;;;1.70;;
16407;SDS011;8313;49.894;8.084;2022-09-20T15:53:58;8.73;;;2.60;;
16407;SDS011;8313;49.894;8.084;2022-09-20T15:56:26;2.23;;;2.00;;
16407;SDS011;8313;49.894;8.084;2022-09-20T15:59:05;6.10;;;2.33;;
16407;SDS011;8313;49.894;8.084;2022-09-20T16:01:39;1.73;;;1.63;;
16407;SDS011;8313;49.894;8.084;2022-09-20T16:04:11;4.43;;;1.80;;
16407;SDS011;8313;49.894;8.084;2022-09-20T16:06:39;1.70;;;1.60;;
16407;SDS011;8313;49.894;8.084;2022-09-20T16:09:06;1.73;;;1.60;;
16407;SDS011;8313;49.894;8.084;2022-09-20T16:11:33;1.70;;;1.60;;
16407;SDS011;8313;49.894;8.084;2022-09-20T16:13:59;2.20;;;2.00;;
16407;SDS011;8313;49.894;8.084;2022-09-20T16:16:26;1.67;;;1.57;;
16407;SDS011;8313;49.894;8.084;2022-09-20T16:18:52;2.00;;;1.90;;
16407;SDS011;8313;49.894;8.084;2022-09-20T16:21:37;2.17;;;1.80;;
16407;SDS011;8313;49.894;8.084;2022-09-20T16:24:04;2.23;;;2.03;;
16407;SDS011;8313;49.894;8.084;2022-09-20T16:26:31;1.83;;;1.70;;
16407;SDS011;8313;49.894;8.084;2022-09-20T16:28:58;3.80;;;2.50;;
16407;SDS011;8313;49.894;8.084;2022-09-20T16:33:55;17.13;;;11.53;;
16407;SDS011;8313;49.894;8.084;2022-09-20T16:36:21;13.30;;;8.43;;
16407;SDS011;8313;49.894;8.084;2022-09-20T16:38:52;8.70;;;6.20;;
16407;SDS011;8313;49.894;8.084;2022-09-20T16:41:19;13.47;;;5.97;;
16407;SDS011;8313;49.894;8.084;2022-09-20T16:43:47;5.20;;;3.43;;
16407;SDS011;8313;49.894;8.084;2022-09-20T16:46:16;5.83;;;3.50;;
16407;SDS011;8313;49.894;8.084;2022-09-20T16:48:46;13.87;;;8.17;;
16407;SDS011;8313;49.894;8.084;2022-09-20T16:51:14;12.00;;;6.10;;
16407;SDS011;8313;49.894;8.084;2022-09-20T16:53:39;5.03;;;4.10;;
16407;SDS011;8313;49.894;8.084;2022-09-20T16:56:06;4.40;;;2.97;;
16407;SDS011;8313;49.894;8.084;2022-09-20T16:58:32;3.10;;;2.07;;
16407;SDS011;8313;49.894;8.084;2022-09-20T17:01:03;4.13;;;2.67;;
16407;SDS011;8313;49.894;8.084;2022-09-20T17:03:32;4.30;;;2.23;;
16407;SDS011;8313;49.894;8.084;2022-09-20T17:06:02;2.50;;;2.30;;
16407;SDS011;8313;49.894;8.084;2022-09-20T17:08:30;6.23;;;2.17;;
16407;SDS011;8313;49.894;8.084;2022-09-20T17:11:38;4.10;;;2.67;;
16407;SDS011;8313;49.894;8.084;2022-09-20T17:13:57;7.10;;;6.23;;
16407;SDS011;8313;49.894;8.084;2022-09-20T17:18:50;7.87;;;5.60;;
16407;SDS011;8313;49.894;8.084;2022-09-20T17:21:18;5.10;;;3.93;;
16407;SDS011;8313;49.894;8.084;2022-09-20T17:23:44;3.63;;;3.20;;
16407;SDS011;8313;49.894;8.084;2022-09-20T17:26:13;5.53;;;2.57;;
16407;SDS011;8313;49.894;8.084;2022-09-20T17:28:44;5.67;;;3.60;;
16407;SDS011;8313;49.894;8.084;2022-09-20T17:31:12;4.00;;;2.50;;
16407;SDS011;8313;49.894;8.084;2022-09-20T17:33:40;3.10;;;2.37;;
16407;SDS011;8313;49.894;8.084;2022-09-20T17:36:07;2.37;;;2.20;;
16407;SDS011;8313;49.894;8.084;2022-09-20T17:38:36;3.13;;;2.00;;
16407;SDS011;8313;49.894;8.084;2022-09-20T17:41:07;8.30;;;3.43;;
16407;SDS011;8313;49.894;8.084;2022-09-20T17:43:35;5.33;;;2.90;;
16407;SDS011;8313;49.894;8.084;2022-09-20T17:46:05;4.50;;;3.30;;
16407;SDS011;8313;49.894;8.084;2022-09-20T17:48:34;7.33;;;3.13;;
16407;SDS011;8313;49.894;8.084;2022-09-20T17:51:00;7.70;;;3.73;;
16407;SDS011;8313;49.894;8.084;2022-09-20T17:53:31;4.30;;;3.00;;
16407;SDS011;8313;49.894;8.084;2022-09-20T17:55:58;7.40;;;2.60;;
16407;SDS011;8313;49.894;8.084;2022-09-20T17:58:25;4.70;;;2.83;;
16407;SDS011;8313;49.894;8.084;2022-09-20T18:00:51;4.23;;;2.60;;
16407;SDS011;8313;49.894;8.084;2022-09-20T18:03:22;7.53;;;2.77;;
16407;SDS011;8313;49.894;8.084;2022-09-20T18:05:49;3.73;;;2.30;;
16407;SDS011;8313;49.894;8.084;2022-09-20T18:08:15;6.43;;;2.37;;
16407;SDS011;8313;49.894;8.084;2022-09-20T18:11:03;7.20;;;2.17;;
16407;SDS011;8313;49.894;8.084;2022-09-20T18:13:27;2.30;;;2.10;;
16407;SDS011;8313;49.894;8.084;2022-09-20T18:15:54;2.97;;;2.00;;
16407;SDS011;8313;49.894;8.084;2022-09-20T18:18:20;3.30;;;2.20;;
16407;SDS011;8313;49.894;8.084;2022-09-20T18:20:45;4.77;;;2.53;;
16407;SDS011;8313;49.894;8.084;2022-09-20T18:23:11;2.83;;;2.57;;
16407;SDS011;8313;49.894;8.084;2022-09-20T18:25:37;3.37;;;3.00;;
16407;SDS011;8313;49.894;8.084;2022-09-20T18:28:22;4.27;;;3.87;;
16407;SDS011;8313;49.894;8.084;2022-09-20T18:30:48;4.00;;;3.70;;
16407;SDS011;8313;49.894;8.084;2022-09-20T18:33:24;3.40;;;3.10;;
16407;SDS011;8313;49.894;8.084;2022-09-20T18:35:50;6.70;;;3.13;;
16407;SDS011;8313;49.894;8.084;2022-09-20T18:38:16;2.90;;;2.70;;
16407;SDS011;8313;49.894;8.084;2022-09-20T18:40:42;3.03;;;2.73;;
16407;SDS011;8313;49.894;8.084;2022-09-20T18:43:17;2.50;;;2.30;;
16407;SDS011;8313;49.894;8.084;2022-09-20T18:45:49;2.73;;;2.53;;
16407;SDS011;8313;49.894;8.084;2022-09-20T18:48:17;3.23;;;2.40;;
16407;SDS011;8313;49.894;8.084;2022-09-20T18:50:53;3.90;;;2.47;;
16407;SDS011;8313;49.894;8.084;2022-09-20T18:53:30;2.67;;;2.27;;
16407;SDS011;8313;49.894;8.084;2022-09-20T18:58:48;7.03;;;2.27;;
16407;SDS011;8313;49.894;8.084;2022-09-20T19:06:42;2.10;;;2.00;;
16407;SDS011;8313;49.894;8.084;2022-09-20T19:09:35;2.27;;;2.10;;
16407;SDS011;8313;49.894;8.084;2022-09-20T19:12:16;3.87;;;2.33;;
16407;SDS011;8313;49.894;8.084;2022-09-20T19:26:21;3.60;;;3.00;;
16407;SDS011;8313;49.894;8.084;2022-09-20T19:28:48;3.90;;;3.60;;
16407;SDS011;8313;49.894;8.084;2022-09-20T19:33:54;4.20;;;3.80;;
16407;SDS011;8313;49.894;8.084;2022-09-20T19:36:22;3.57;;;3.30;;
16407;SDS011;8313;49.894;8.084;2022-09-20T19:39:18;7.70;;;3.00;;
16407;SDS011;8313;49.894;8.084;2022-09-20T19:42:03;3.27;;;2.97;;
16407;SDS011;8313;49.894;8.084;2022-09-20T19:52:52;3.53;;;2.70;;
16407;SDS011;8313;49.894;8.084;2022-09-20T19:55:18;4.50;;;3.87;;
16407;SDS011;8313;49.894;8.084;2022-09-20T19:57:45;8.73;;;5.60;;
16407;SDS011;8313;49.894;8.084;2022-09-20T20:00:15;6.90;;;5.20;;
16407;SDS011;8313;49.894;8.084;2022-09-20T20:02:44;6.20;;;5.60;;
16407;SDS011;8313;49.894;8.084;2022-09-20T20:05:11;5.13;;;4.60;;
16407;SDS011;8313;49.894;8.084;2022-09-20T20:15:43;3.20;;;2.93;;
16407;SDS011;8313;49.894;8.084;2022-09-20T20:18:19;2.80;;;2.60;;
16407;SDS011;8313;49.894;8.084;2022-09-20T20:20:58;3.57;;;2.40;;
16407;SDS011;8313;49.894;8.084;2022-09-20T20:26:18;6.57;;;2.67;;
16407;SDS011;8313;49.894;8.084;2022-09-20T20:28:48;4.93;;;2.70;;
16407;SDS011;8313;49.894;8.084;2022-09-20T20:31:15;3.90;;;3.10;;
16407;SDS011;8313;49.894;8.084;2022-09-20T20:33:41;12.43;;;3.20;;
16407;SDS011;8313;49.894;8.084;2022-09-20T20:36:07;3.70;;;2.60;;
16407;SDS011;8313;49.894;8.084;2022-09-20T20:38:36;3.23;;;2.90;;
16407;SDS011;8313;49.894;8.084;2022-09-20T20:41:07;4.67;;;3.23;;
16407;SDS011;8313;49.894;8.084;2022-09-20T20:43:35;7.57;;;3.90;;
16407;SDS011;8313;49.894;8.084;2022-09-20T20:46:03;5.30;;;3.80;;
16407;SDS011;8313;49.894;8.084;2022-09-20T20:48:30;6.60;;;3.60;;
16407;SDS011;8313;49.894;8.084;2022-09-20T20:51:14;6.03;;;4.10;;
16407;SDS011;8313;49.894;8.084;2022-09-20T20:53:45;6.17;;;3.20;;
16407;SDS011;8313;49.894;8.084;2022-09-20T20:56:13;6.97;;;3.47;;
16407;SDS011;8313;49.894;8.084;2022-09-20T20:58:44;3.87;;;2.73;;
16407;SDS011;8313;49.894;8.084;2022-09-20T21:03:38;3.80;;;3.10;;
16407;SDS011;8313;49.894;8.084;2022-09-20T21:06:05;5.40;;;4.03;;
16407;SDS011;8313;49.894;8.084;2022-09-20T21:08:39;7.10;;;4.60;;
16407;SDS011;8313;49.894;8.084;2022-09-20T21:11:07;8.63;;;5.40;;
16407;SDS011;8313;49.894;8.084;2022-09-20T21:13:36;5.17;;;4.67;;